Time;durP1;ratioP1;P1;durP2;ratioP2;P2;SDS_P1;SDS_P2;PMS_P1;PMS_P2;Temp;Humidity;BMP_temperature;BMP_pressure;BME280_temperature;BME280_humidity;BME280_pressure;Samples;Min_cycle;Max_cycle;Signal;HPM_P1;HPM_P2
2023/07/09 00:01:40;;;;;;;10.20;4.60;;;28.00;99.90;;;;;;5043624;28;20266;-44
2023/07/09 00:04:10;;;;;;;10.65;3.92;;;28.00;99.90;;;;;;5052602;28;20025;-44
2023/07/09 00:06:36;;;;;;;10.18;3.80;;;28.00;99.90;;;;;;5053907;28;20040;-44
2023/07/09 00:09:01;;;;;;;8.00;3.67;;;28.00;99.90;;;;;;5053189;28;20094;-44
2023/07/09 00:11:27;;;;;;;12.35;4.38;;;28.00;99.90;;;;;;5053823;28;20048;-44
2023/07/09 00:13:53;;;;;;;16.13;4.80;;;28.00;99.90;;;;;;5053657;28;20056;-43
2023/07/09 00:16:24;;;;;;;10.10;3.97;;;28.00;99.90;;;;;;5052366;28;20037;-43
2023/07/09 00:18:51;;;;;;;12.00;3.90;;;27.90;99.90;;;;;;5052186;28;20032;-44
2023/07/09 00:21:18;;;;;;;17.33;4.72;;;27.90;99.90;;;;;;5053662;28;20167;-44
2023/07/09 00:23:44;;;;;;;14.65;4.43;;;27.90;99.90;;;;;;5052201;28;20075;-44
2023/07/09 00:26:13;;;;;;;11.82;4.18;;;27.90;99.90;;;;;;5053537;28;20052;-44
2023/07/09 00:28:40;;;;;;;12.75;4.60;;;27.90;99.90;;;;;;5040479;28;20033;-44
2023/07/09 00:31:14;;;;;;;14.63;5.15;;;27.90;99.90;;;;;;5053349;28;20615;-44
2023/07/09 00:33:41;;;;;;;15.00;4.07;;;27.90;99.90;;;;;;5052314;28;20108;-44
2023/07/09 00:36:33;;;;;;;10.63;5.35;;;27.80;99.90;;;;;;5053166;28;20112;-43
2023/07/09 00:39:04;;;;;;;9.27;4.18;;;27.80;99.90;;;;;;5053053;28;20099;-43
2023/07/09 00:41:33;;;;;;;13.00;4.22;;;27.80;99.90;;;;;;5044221;28;20018;-44
2023/07/09 00:44:20;;;;;;;13.25;4.93;;;27.80;99.90;;;;;;5049477;28;20103;-43
2023/07/09 00:46:48;;;;;;;9.63;4.47;;;27.70;99.90;;;;;;5053225;28;20029;-44
2023/07/09 00:49:25;;;;;;;11.80;4.78;;;27.70;99.90;;;;;;5040129;28;20043;-44
2023/07/09 00:51:51;;;;;;;15.93;4.57;;;27.80;99.90;;;;;;5053022;28;20056;-44
2023/07/09 00:54:23;;;;;;;10.88;4.30;;;27.80;99.90;;;;;;5047378;28;20476;-44
2023/07/09 00:56:53;;;;;;;11.60;3.85;;;27.80;99.90;;;;;;5044832;28;20028;-44
2023/07/09 00:59:28;;;;;;;12.38;4.30;;;27.70;99.90;;;;;;5052860;28;20025;-44
2023/07/09 01:01:57;;;;;;;10.52;4.50;;;27.70;99.90;;;;;;5041150;28;20488;-47
2023/07/09 01:04:24;;;;;;;14.82;6.88;;;27.70;99.90;;;;;;5052058;28;20029;-44
2023/07/09 01:06:54;;;;;;;11.35;5.88;;;27.70;99.90;;;;;;5052658;28;20009;-44
2023/07/09 01:09:22;;;;;;;8.75;4.07;;;27.70;99.90;;;;;;5038651;28;20048;-48
2023/07/09 01:11:48;;;;;;;11.02;4.70;;;27.70;99.90;;;;;;5052646;28;20032;-44
2023/07/09 01:14:19;;;;;;;12.48;4.35;;;27.70;99.90;;;;;;5049059;28;20037;-45
2023/07/09 01:17:09;;;;;;;11.57;4.10;;;27.70;99.90;;;;;;5043796;28;20127;-43
2023/07/09 01:19:43;;;;;;;9.55;4.25;;;27.70;99.90;;;;;;5052474;28;20053;-44
2023/07/09 01:22:12;;;;;;;17.30;4.90;;;27.70;99.90;;;;;;5039215;28;20036;-44
2023/07/09 01:24:46;;;;;;;10.38;4.00;;;27.70;99.90;;;;;;5052382;28;20151;-44
2023/07/09 01:27:12;;;;;;;14.30;4.85;;;27.70;99.90;;;;;;5051805;28;20027;-44
2023/07/09 01:29:39;;;;;;;13.73;4.03;;;27.70;99.90;;;;;;5039767;28;20076;-44
2023/07/09 01:32:06;;;;;;;18.90;4.63;;;27.70;99.90;;;;;;5052047;28;20017;-44
2023/07/09 01:34:33;;;;;;;11.73;4.25;;;27.70;99.90;;;;;;5052326;28;20025;-44
2023/07/09 01:36:59;;;;;;;12.32;3.97;;;27.70;99.90;;;;;;5052202;28;20397;-43
2023/07/09 01:39:28;;;;;;;10.38;3.88;;;27.70;99.90;;;;;;5051810;28;20017;-44
2023/07/09 01:41:54;;;;;;;9.38;3.88;;;27.70;99.90;;;;;;5040424;28;20076;-43
2023/07/09 01:44:20;;;;;;;10.80;4.75;;;27.70;99.90;;;;;;5050509;28;20017;-44
2023/07/09 01:46:46;;;;;;;12.77;4.07;;;27.70;99.90;;;;;;5041005;28;20025;-44
2023/07/09 01:49:12;;;;;;;13.90;4.03;;;27.60;99.90;;;;;;5049813;28;20377;-44
2023/07/09 01:51:39;;;;;;;13.32;4.63;;;27.70;99.90;;;;;;5051960;28;20120;-44
2023/07/09 01:54:05;;;;;;;14.77;4.53;;;27.70;99.90;;;;;;5051716;28;20607;-44
2023/07/09 01:56:31;;;;;;;13.50;4.78;;;27.70;99.90;;;;;;5052240;28;20024;-44
2023/07/09 01:59:01;;;;;;;12.15;4.47;;;27.70;99.90;;;;;;5051687;28;20021;-43
2023/07/09 02:01:28;;;;;;;15.13;4.68;;;27.70;99.90;;;;;;5038927;22;20116;-49
2023/07/09 02:03:54;;;;;;;7.97;4.43;;;27.70;99.90;;;;;;4992644;28;20026;-49
2023/07/09 02:06:20;;;;;;;11.90;4.13;;;27.70;99.90;;;;;;4992657;28;20034;-49
2023/07/09 02:08:46;;;;;;;14.15;4.65;;;27.60;99.90;;;;;;4992291;28;20026;-49
2023/07/09 02:11:12;;;;;;;12.77;4.53;;;27.60;99.90;;;;;;4991287;28;20050;-49
2023/07/09 02:13:38;;;;;;;13.13;4.13;;;27.60;99.90;;;;;;5004913;28;20076;-49
2023/07/09 02:16:04;;;;;;;15.35;5.18;;;27.60;99.90;;;;;;4993242;28;20462;-49
2023/07/09 02:18:29;;;;;;;13.50;5.45;;;27.60;99.90;;;;;;4992512;28;20466;-49
2023/07/09 02:20:55;;;;;;;12.05;5.30;;;27.60;99.90;;;;;;4992389;28;20030;-49
2023/07/09 02:23:26;;;;;;;13.68;4.57;;;27.60;99.90;;;;;;4992256;28;20019;-50
2023/07/09 02:25:52;;;;;;;18.38;5.18;;;27.60;99.90;;;;;;4992354;28;20022;-49
2023/07/09 02:28:18;;;;;;;17.30;5.32;;;27.60;99.90;;;;;;4992472;28;20033;-49
2023/07/09 02:30:44;;;;;;;16.55;5.05;;;27.60;99.90;;;;;;4992083;28;20031;-49
2023/07/09 02:33:10;;;;;;;12.25;4.53;;;27.60;99.90;;;;;;5000596;28;20034;-49
2023/07/09 02:35:36;;;;;;;14.18;5.05;;;27.60;99.90;;;;;;4997108;28;20026;-49
2023/07/09 02:38:02;;;;;;;18.55;5.63;;;27.50;99.90;;;;;;4992128;28;20018;-49
2023/07/09 02:40:28;;;;;;;11.05;4.28;;;27.50;99.90;;;;;;4992302;28;20037;-49
2023/07/09 02:42:54;;;;;;;13.27;4.35;;;27.50;99.90;;;;;;4992186;28;20498;-48
2023/07/09 02:45:20;;;;;;;13.23;4.75;;;27.50;99.90;;;;;;4992235;28;20034;-49
2023/07/09 02:47:46;;;;;;;14.25;5.13;;;27.40;99.90;;;;;;4992251;28;20478;-49
2023/07/09 02:50:12;;;;;;;15.07;4.55;;;27.40;99.90;;;;;;4992696;28;20093;-49
2023/07/09 02:52:38;;;;;;;17.17;4.47;;;27.40;99.90;;;;;;4992111;28;20026;-49
2023/07/09 02:55:04;;;;;;;12.50;4.25;;;27.40;99.90;;;;;;4992617;28;20034;-49
2023/07/09 02:57:30;;;;;;;17.30;5.53;;;27.40;99.90;;;;;;4995595;28;20018;-49
2023/07/09 02:59:55;;;;;;;14.05;5.13;;;27.30;99.90;;;;;;5004480;28;20041;-49
2023/07/09 03:02:21;;;;;;;18.08;6.20;;;27.40;99.90;;;;;;5011923;22;20058;-45
2023/07/09 03:04:47;;;;;;;16.92;6.00;;;27.30;99.90;;;;;;4995777;28;20418;-44
2023/07/09 03:07:13;;;;;;;19.27;5.65;;;27.30;99.90;;;;;;4995678;28;20054;-45
2023/07/09 03:09:38;;;;;;;15.05;5.78;;;27.20;99.90;;;;;;4995210;28;20038;-45
2023/07/09 03:12:05;;;;;;;18.10;6.05;;;27.20;99.90;;;;;;4996163;28;20019;-45
2023/07/09 03:14:32;;;;;;;18.40;5.90;;;27.20;99.90;;;;;;4995483;28;20026;-45
2023/07/09 03:16:58;;;;;;;16.25;5.90;;;27.10;99.90;;;;;;4995411;28;20081;-45
2023/07/09 03:19:24;;;;;;;15.88;5.97;;;27.10;99.90;;;;;;4995309;28;20121;-45
2023/07/09 03:21:49;;;;;;;19.38;6.50;;;27.00;99.90;;;;;;4995590;28;20057;-45
2023/07/09 03:24:18;;;;;;;17.17;5.95;;;27.00;99.90;;;;;;4995229;28;20133;-45
2023/07/09 03:26:45;;;;;;;20.27;5.88;;;27.00;99.90;;;;;;4995533;28;20488;-44
2023/07/09 03:29:11;;;;;;;18.77;5.57;;;26.90;99.90;;;;;;4993655;28;20478;-44
2023/07/09 03:31:37;;;;;;;14.63;6.47;;;26.90;99.90;;;;;;4995501;28;20121;-44
2023/07/09 03:34:03;;;;;;;21.13;6.15;;;26.90;99.90;;;;;;4995194;28;20050;-45
2023/07/09 03:36:30;;;;;;;15.20;5.97;;;26.80;99.90;;;;;;4995137;28;20030;-44
2023/07/09 03:38:55;;;;;;;17.60;5.63;;;26.90;99.90;;;;;;4994930;28;20022;-44
2023/07/09 03:41:21;;;;;;;15.18;5.70;;;26.80;99.90;;;;;;4995050;28;20552;-44
2023/07/09 03:43:50;;;;;;;17.08;5.57;;;26.90;99.90;;;;;;4995013;28;20034;-44
2023/07/09 03:46:15;;;;;;;20.92;5.65;;;26.90;99.90;;;;;;4994805;28;20025;-43
2023/07/09 03:48:41;;;;;;;27.48;6.43;;;26.90;99.90;;;;;;4994677;28;20027;-44
2023/07/09 03:51:07;;;;;;;19.20;6.25;;;26.90;99.90;;;;;;4989308;28;20034;-44
2023/07/09 03:53:33;;;;;;;13.70;6.30;;;26.90;99.90;;;;;;4987540;28;20378;-45
2023/07/09 03:56:00;;;;;;;15.43;6.40;;;26.90;99.90;;;;;;4993233;28;20018;-44
2023/07/09 03:58:26;;;;;;;18.57;5.60;;;26.90;99.90;;;;;;4994965;28;20155;-44
2023/07/09 04:00:53;;;;;;;10.15;5.40;;;26.90;99.90;;;;;;4994413;28;20371;-44
2023/07/09 04:03:20;;;;;;;14.65;5.53;;;26.90;99.90;;;;;;4993296;28;20423;-45
2023/07/09 04:05:46;;;;;;;15.20;6.20;;;26.90;99.90;;;;;;4980343;28;20023;-44
2023/07/09 04:08:12;;;;;;;13.13;5.40;;;26.90;99.90;;;;;;4994403;28;20068;-45
2023/07/09 04:10:38;;;;;;;15.15;5.20;;;26.90;99.90;;;;;;4994446;28;20652;-45
2023/07/09 04:13:03;;;;;;;11.48;4.85;;;26.90;99.90;;;;;;4993307;28;20034;-44
2023/07/09 04:15:30;;;;;;;15.85;5.53;;;26.90;99.90;;;;;;4993880;28;20046;-44
2023/07/09 04:17:55;;;;;;;17.60;6.55;;;26.90;99.90;;;;;;4994436;28;20235;-44
2023/07/09 04:20:22;;;;;;;12.82;5.15;;;26.90;99.90;;;;;;4994117;28;20478;-45
2023/07/09 04:22:48;;;;;;;17.60;4.70;;;26.90;99.90;;;;;;4994241;28;20054;-45
2023/07/09 04:25:14;;;;;;;15.60;5.43;;;26.90;99.90;;;;;;4994115;28;20469;-45
2023/07/09 04:27:39;;;;;;;17.30;5.78;;;26.90;99.90;;;;;;4994125;28;20026;-44
2023/07/09 04:30:10;;;;;;;12.93;5.75;;;27.00;99.90;;;;;;4992466;28;20038;-44
2023/07/09 04:32:37;;;;;;;18.10;5.63;;;27.00;99.90;;;;;;4993882;28;20536;-45
2023/07/09 04:35:06;;;;;;;20.05;5.88;;;27.00;99.90;;;;;;4994153;28;20088;-45
2023/07/09 04:37:32;;;;;;;19.38;6.13;;;27.00;99.90;;;;;;4993670;28;20014;-44
2023/07/09 04:39:58;;;;;;;19.90;6.43;;;26.90;99.90;;;;;;4994021;28;20372;-45
2023/07/09 04:42:23;;;;;;;16.27;6.43;;;27.00;99.90;;;;;;4993563;28;20022;-44
2023/07/09 04:44:49;;;;;;;19.42;6.75;;;26.90;99.90;;;;;;4994022;28;20033;-45
2023/07/09 04:47:15;;;;;;;13.10;4.75;;;26.90;99.90;;;;;;4993357;28;20101;-45
2023/07/09 04:49:41;;;;;;;18.52;6.00;;;26.90;99.90;;;;;;4993834;28;20133;-45
2023/07/09 04:52:11;;;;;;;13.40;5.18;;;26.90;99.90;;;;;;4993759;28;20019;-44
2023/07/09 04:54:39;;;;;;;9.38;4.85;;;26.90;99.90;;;;;;4993544;28;20030;-42
2023/07/09 04:57:05;;;;;;;17.80;5.18;;;26.90;99.90;;;;;;4993505;28;20031;-42
2023/07/09 04:59:31;;;;;;;11.75;5.10;;;26.90;99.90;;;;;;4993755;28;20497;-43
2023/07/09 05:01:57;;;;;;;13.10;5.50;;;26.90;99.90;;;;;;4993478;28;20482;-44
2023/07/09 05:04:23;;;;;;;11.95;5.68;;;26.80;99.90;;;;;;4993156;28;20026;-43
2023/07/09 05:06:49;;;;;;;12.60;4.80;;;26.80;99.90;;;;;;4993350;28;20019;-43
2023/07/09 05:09:14;;;;;;;15.02;5.25;;;26.80;99.90;;;;;;4991983;28;20030;-44
2023/07/09 05:11:40;;;;;;;11.27;4.85;;;26.80;99.90;;;;;;4993690;28;20032;-44
2023/07/09 05:14:06;;;;;;;16.67;5.75;;;26.80;99.90;;;;;;4993025;28;20034;-44
2023/07/09 05:16:32;;;;;;;12.60;5.80;;;26.80;99.90;;;;;;4993149;28;20018;-44
2023/07/09 05:18:57;;;;;;;17.73;5.53;;;26.80;99.90;;;;;;4992225;28;20050;-44
2023/07/09 05:21:23;;;;;;;11.10;5.00;;;26.80;99.90;;;;;;4993058;28;20018;-44
2023/07/09 05:23:49;;;;;;;13.15;5.28;;;26.80;99.90;;;;;;4980121;28;20026;-44
2023/07/09 05:26:15;;;;;;;15.20;5.90;;;26.80;99.90;;;;;;4993436;28;20030;-45
2023/07/09 05:28:40;;;;;;;15.82;6.15;;;26.80;99.90;;;;;;4993212;28;20019;-45
2023/07/09 05:31:06;;;;;;;14.35;5.50;;;26.80;99.90;;;;;;4991504;28;20505;-45
2023/07/09 05:33:32;;;;;;;13.38;5.35;;;26.80;99.90;;;;;;4981510;28;20459;-45
2023/07/09 05:35:58;;;;;;;16.45;5.65;;;26.80;99.90;;;;;;4991658;28;20026;-45
2023/07/09 05:38:24;;;;;;;17.38;5.95;;;26.80;99.90;;;;;;4992962;28;20080;-46
2023/07/09 05:41:02;;;;;;;13.23;5.53;;;26.80;99.90;;;;;;4992605;28;20470;-44
2023/07/09 05:43:29;;;;;;;13.77;5.35;;;26.80;99.90;;;;;;4991701;28;20101;-43
2023/07/09 05:45:54;;;;;;;11.35;4.63;;;26.80;99.90;;;;;;4992639;28;20023;-44
2023/07/09 05:48:20;;;;;;;12.68;4.60;;;26.80;99.90;;;;;;4991623;28;20050;-45
2023/07/09 05:50:53;;;;;;;8.68;4.80;;;26.80;99.90;;;;;;4992318;28;20050;-45
2023/07/09 05:53:19;;;;;;;11.32;5.13;;;26.80;99.90;;;;;;4992176;28;20041;-45
2023/07/09 05:55:44;;;;;;;14.23;4.78;;;26.70;99.90;;;;;;4992723;28;20486;-45
2023/07/09 05:58:10;;;;;;;14.25;4.95;;;26.70;99.90;;;;;;4992659;28;20102;-44
2023/07/09 06:00:37;;;;;;;14.80;6.00;;;26.70;99.90;;;;;;4991576;28;20430;-43
2023/07/09 06:03:07;;;;;;;16.57;4.53;;;26.70;99.90;;;;;;4992729;28;20026;-44
2023/07/09 06:05:33;;;;;;;15.55;5.15;;;26.60;99.90;;;;;;4992018;28;20394;-44
2023/07/09 06:07:59;;;;;;;19.17;6.55;;;26.60;99.90;;;;;;4991281;28;20034;-45
2023/07/09 06:10:25;;;;;;;13.75;7.03;;;26.60;99.90;;;;;;4992271;28;20041;-44
2023/07/09 06:12:51;;;;;;;15.43;5.00;;;26.60;99.90;;;;;;4992509;28;20489;-43
2023/07/09 06:15:17;;;;;;;15.40;5.78;;;26.60;99.90;;;;;;4992262;28;20022;-43
2023/07/09 06:17:42;;;;;;;13.15;5.15;;;26.60;99.90;;;;;;4992663;28;20473;-43
2023/07/09 06:20:09;;;;;;;16.35;5.75;;;26.50;99.90;;;;;;4991973;28;20438;-44
2023/07/09 06:22:34;;;;;;;17.40;6.72;;;26.50;99.90;;;;;;4992243;28;20080;-44
2023/07/09 06:25:00;;;;;;;19.63;5.80;;;26.50;99.90;;;;;;4992508;28;20026;-47
2023/07/09 06:27:26;;;;;;;20.98;7.13;;;26.50;99.90;;;;;;4992304;28;20022;-47
2023/07/09 06:29:52;;;;;;;19.08;7.25;;;26.50;99.90;;;;;;4991573;28;20039;-47
2023/07/09 06:32:18;;;;;;;23.77;7.38;;;26.50;99.90;;;;;;4995572;28;20058;-47
2023/07/09 06:34:44;;;;;;;20.35;6.35;;;26.50;99.90;;;;;;4996300;28;20023;-47
2023/07/09 06:37:09;;;;;;;11.63;5.25;;;26.60;99.90;;;;;;4995988;28;20030;-46
2023/07/09 06:39:35;;;;;;;12.80;5.85;;;26.50;99.90;;;;;;4995645;28;20049;-46
2023/07/09 06:42:01;;;;;;;14.05;5.72;;;26.50;99.90;;;;;;4985029;28;20037;-47
2023/07/09 06:44:27;;;;;;;19.17;6.90;;;26.50;99.90;;;;;;4993023;28;20053;-47
2023/07/09 06:46:52;;;;;;;12.95;5.57;;;26.50;99.90;;;;;;4994786;28;20037;-47
2023/07/09 06:49:18;;;;;;;13.15;6.53;;;26.60;99.90;;;;;;4996094;28;20054;-47
2023/07/09 06:51:44;;;;;;;15.43;5.55;;;26.50;99.90;;;;;;4996143;28;20085;-48
2023/07/09 06:54:12;;;;;;;12.23;5.03;;;26.50;99.90;;;;;;4994028;28;20493;-48
2023/07/09 06:56:38;;;;;;;18.17;4.90;;;26.50;99.90;;;;;;4995847;28;20023;-47
2023/07/09 06:59:04;;;;;;;10.63;4.18;;;26.60;99.90;;;;;;4994876;28;20041;-47
2023/07/09 07:01:30;;;;;;;14.88;5.43;;;26.50;99.90;;;;;;4995428;28;20042;-48
2023/07/09 07:03:55;;;;;;;13.48;5.03;;;26.60;99.90;;;;;;4995716;28;20033;-47
2023/07/09 07:06:21;;;;;;;13.90;4.85;;;26.60;99.90;;;;;;4994256;28;20490;-48
2023/07/09 07:08:47;;;;;;;14.90;5.40;;;26.60;99.90;;;;;;4995692;28;20493;-48
2023/07/09 07:11:13;;;;;;;15.82;5.07;;;26.70;99.90;;;;;;4995415;28;20026;-48
2023/07/09 07:13:40;;;;;;;13.05;4.60;;;26.70;99.90;;;;;;4986642;28;20106;-48
2023/07/09 07:16:08;;;;;;;19.55;6.43;;;26.70;99.90;;;;;;4990380;28;20030;-47
2023/07/09 07:18:35;;;;;;;16.15;6.00;;;26.70;99.90;;;;;;4995531;28;20027;-49
2023/07/09 07:21:01;;;;;;;18.75;5.28;;;26.80;99.90;;;;;;4982390;28;20078;-47
2023/07/09 07:23:27;;;;;;;16.00;7.18;;;26.80;99.90;;;;;;4995334;28;20025;-47
2023/07/09 07:25:54;;;;;;;17.38;5.25;;;26.80;99.90;;;;;;4995638;28;20027;-47
2023/07/09 07:28:20;;;;;;;12.75;5.75;;;26.80;99.90;;;;;;4995586;28;20502;-47
2023/07/09 07:30:46;;;;;;;15.32;5.65;;;26.90;99.90;;;;;;4994708;28;20168;-47
2023/07/09 07:33:16;;;;;;;11.70;5.13;;;26.90;99.90;;;;;;4995313;28;20109;-48
2023/07/09 07:35:41;;;;;;;12.93;5.68;;;26.90;99.90;;;;;;4995200;28;20328;-48
2023/07/09 07:38:07;;;;;;;12.88;4.60;;;27.00;99.90;;;;;;4993590;28;20105;-47
2023/07/09 07:40:33;;;;;;;12.85;5.22;;;27.00;99.90;;;;;;4995117;28;20080;-47
2023/07/09 07:42:59;;;;;;;14.00;5.07;;;27.00;99.90;;;;;;4982030;28;20091;-48
2023/07/09 07:45:25;;;;;;;15.43;4.95;;;27.10;99.90;;;;;;4994810;28;20018;-47
2023/07/09 07:47:51;;;;;;;11.60;4.03;;;27.10;99.90;;;;;;4989418;28;20033;-48
2023/07/09 07:50:18;;;;;;;15.90;5.57;;;27.20;99.90;;;;;;4988246;28;20490;-48
2023/07/09 07:52:44;;;;;;;13.55;5.72;;;27.20;99.90;;;;;;4994649;28;20022;-47
2023/07/09 07:55:10;;;;;;;11.93;4.55;;;27.30;99.90;;;;;;4993824;28;20027;-48
2023/07/09 07:57:35;;;;;;;11.77;3.83;;;27.30;99.90;;;;;;4994708;28;20094;-48
2023/07/09 08:00:02;;;;;;;9.90;3.78;;;27.30;99.90;;;;;;4994710;28;20022;-48
2023/07/09 08:02:28;;;;;;;9.73;4.43;;;27.40;99.90;;;;;;4994329;28;20114;-48
2023/07/09 08:04:54;;;;;;;13.55;3.75;;;27.40;99.90;;;;;;4994784;28;20105;-47
2023/07/09 08:07:20;;;;;;;19.50;4.88;;;27.50;99.90;;;;;;4994640;28;20030;-48
2023/07/09 08:09:47;;;;;;;14.40;4.32;;;27.50;99.90;;;;;;5001386;28;20055;-48
2023/07/09 08:12:14;;;;;;;16.13;4.85;;;27.60;99.90;;;;;;4975565;28;20509;-46
2023/07/09 08:14:42;;;;;;;8.82;4.10;;;27.60;99.90;;;;;;4994596;28;20474;-47
2023/07/09 08:17:08;;;;;;;15.70;4.50;;;27.60;99.90;;;;;;4992652;28;20042;-47
2023/07/09 08:19:53;;;;;;;13.50;3.90;;;27.70;99.90;;;;;;4976704;28;20037;-48
2023/07/09 08:22:21;;;;;;;7.95;3.65;;;27.70;99.90;;;;;;4994307;28;20030;-46
2023/07/09 08:24:48;;;;;;;9.30;4.03;;;27.80;99.90;;;;;;4994463;28;20382;-48
2023/07/09 08:27:14;;;;;;;15.02;4.57;;;27.80;99.90;;;;;;4994164;28;20026;-48
2023/07/09 08:29:41;;;;;;;6.20;3.72;;;27.90;99.90;;;;;;4992933;28;20039;-47
2023/07/09 08:32:08;;;;;;;10.50;4.20;;;27.90;99.90;;;;;;4993947;28;20113;-47
2023/07/09 08:34:34;;;;;;;11.13;4.25;;;28.00;99.90;;;;;;4994391;28;20049;-47
2023/07/09 08:37:01;;;;;;;9.85;3.78;;;28.00;99.90;;;;;;4994097;28;20475;-49
2023/07/09 08:39:27;;;;;;;9.43;3.47;;;28.00;99.90;;;;;;4992274;28;20018;-49
2023/07/09 08:42:01;;;;;;;10.43;3.50;;;28.00;99.90;;;;;;4983259;28;20022;-49
2023/07/09 08:44:52;;;;;;;11.10;3.90;;;28.00;99.90;;;;;;4992978;28;20030;-47
2023/07/09 08:47:28;;;;;;;14.95;3.92;;;28.20;99.90;;;;;;4993580;28;20034;-48
2023/07/09 08:49:58;;;;;;;9.05;3.83;;;28.20;99.90;;;;;;4993979;28;20084;-49
2023/07/09 08:52:42;;;;;;;10.27;3.80;;;28.20;99.90;;;;;;4992365;28;20026;-52
2023/07/09 08:55:12;;;;;;;12.60;4.45;;;28.20;99.90;;;;;;4982368;28;20034;-50
2023/07/09 08:57:45;;;;;;;9.43;4.40;;;28.20;99.90;;;;;;4991942;28;20014;-50
2023/07/09 09:00:28;;;;;;;14.35;5.25;;;28.30;99.90;;;;;;4993718;28;20057;-49
2023/07/09 09:03:02;;;;;;;11.82;3.88;;;28.30;99.90;;;;;;4968191;28;20042;-50
2023/07/09 09:05:32;;;;;;;16.08;5.28;;;28.30;99.90;;;;;;4993257;28;20382;-49
2023/07/09 09:08:04;;;;;;;7.18;3.70;;;28.40;99.90;;;;;;4993478;28;20481;-48
2023/07/09 09:10:47;;;;;;;11.60;4.63;;;28.40;99.90;;;;;;4993386;28;20525;-49
2023/07/09 09:13:16;;;;;;;12.35;4.10;;;28.40;99.90;;;;;;4993377;28;20030;-49
2023/07/09 09:15:47;;;;;;;9.48;3.72;;;28.40;99.90;;;;;;4992717;28;20049;-48
2023/07/09 09:18:20;;;;;;;9.40;3.63;;;28.50;99.90;;;;;;4991986;28;20550;-49
2023/07/09 09:21:03;;;;;;;8.05;3.60;;;28.40;99.90;;;;;;4991551;28;20034;-49
2023/07/09 09:23:39;;;;;;;9.55;3.78;;;28.50;99.90;;;;;;4997048;28;20045;-49
2023/07/09 09:26:15;;;;;;;10.30;5.38;;;28.50;99.90;;;;;;4992614;28;20018;-49
2023/07/09 09:28:41;;;;;;;16.05;5.97;;;28.60;99.90;;;;;;4993261;28;20034;-49
2023/07/09 09:31:12;;;;;;;8.40;4.03;;;28.60;99.90;;;;;;4991348;28;20038;-49
2023/07/09 09:33:42;;;;;;;12.38;4.03;;;28.60;99.90;;;;;;4993105;28;20033;-50
2023/07/09 09:36:25;;;;;;;10.20;4.35;;;28.60;99.90;;;;;;4993143;28;20022;-49
2023/07/09 09:38:52;;;;;;;12.57;4.85;;;28.60;99.90;;;;;;4992794;28;20038;-48
2023/07/09 09:41:23;;;;;;;11.02;3.70;;;28.70;99.90;;;;;;4986521;28;20031;-49
2023/07/09 09:43:53;;;;;;;11.18;3.80;;;28.70;99.90;;;;;;4987001;28;20057;-48
2023/07/09 09:46:25;;;;;;;13.35;4.22;;;28.80;99.90;;;;;;4991455;28;20061;-48
2023/07/09 09:48:54;;;;;;;11.05;4.10;;;28.70;99.90;;;;;;4992741;28;20133;-48
2023/07/09 09:51:22;;;;;;;8.77;4.03;;;28.70;99.90;;;;;;4992456;28;20062;-49
2023/07/09 09:53:51;;;;;;;12.02;4.15;;;28.80;99.90;;;;;;4991125;28;20026;-49
2023/07/09 09:56:30;;;;;;;11.32;3.97;;;28.70;99.90;;;;;;4991195;28;20030;-49
2023/07/09 09:58:57;;;;;;;11.98;4.60;;;28.70;99.90;;;;;;4993113;28;20072;-49
2023/07/09 10:01:29;;;;;;;12.30;5.22;;;28.70;99.90;;;;;;4992608;28;20046;-49
2023/07/09 10:03:57;;;;;;;16.13;5.82;;;28.80;99.90;;;;;;4992279;28;20060;-49
2023/07/09 10:06:32;;;;;;;17.95;5.68;;;28.80;99.90;;;;;;4992940;28;20038;-48
2023/07/09 10:09:22;;;;;;;12.77;5.85;;;28.80;99.90;;;;;;4992394;28;20030;-49
2023/07/09 10:11:53;;;;;;;12.70;5.05;;;28.80;99.90;;;;;;4992125;28;20034;-49
2023/07/09 10:14:32;;;;;;;14.45;5.03;;;28.80;99.90;;;;;;4992518;28;20228;-48
2023/07/09 10:17:20;;;;;;;13.80;4.50;;;28.80;99.90;;;;;;4992351;28;20022;-50
2023/07/09 10:20:07;;;;;;;11.65;4.78;;;28.80;99.90;;;;;;4992576;28;20026;-48
2023/07/09 10:23:09;;;;;;;12.48;5.72;;;28.80;99.90;;;;;;4991925;28;20018;-49
2023/07/09 10:25:40;;;;;;;12.23;6.10;;;28.90;99.90;;;;;;4982758;28;20379;-49
2023/07/09 10:28:31;;;;;;;10.27;5.18;;;28.90;99.90;;;;;;4990969;28;20187;-49
2023/07/09 10:31:12;;;;;;;15.18;6.25;;;28.90;99.90;;;;;;4992195;28;20034;-48
2023/07/09 10:33:53;;;;;;;10.48;4.88;;;28.90;99.90;;;;;;4992474;28;20069;-49
2023/07/09 10:36:46;;;;;;;14.38;5.50;;;29.00;99.90;;;;;;4992364;28;20104;-49
2023/07/09 10:39:24;;;;;;;11.00;4.75;;;29.00;99.90;;;;;;4991845;28;20027;-48
2023/07/09 10:41:51;;;;;;;7.10;4.22;;;29.10;99.90;;;;;;4992380;28;20102;-48
2023/07/09 10:44:40;;;;;;;10.60;4.60;;;29.00;99.90;;;;;;4991850;28;20109;-49
2023/07/09 10:47:22;;;;;;;15.05;5.45;;;29.10;99.90;;;;;;4992178;28;20061;-51
2023/07/09 10:49:50;;;;;;;12.27;4.47;;;29.20;99.90;;;;;;4992322;28;20057;-49
2023/07/09 10:52:37;;;;;;;13.35;4.93;;;29.20;99.90;;;;;;4992382;28;20015;-48
2023/07/09 10:55:15;;;;;;;14.50;4.75;;;29.20;99.90;;;;;;4969772;28;20032;-49
2023/07/09 10:57:55;;;;;;;16.92;5.32;;;29.20;99.90;;;;;;4992186;28;20098;-48
2023/07/09 11:00:24;;;;;;;14.18;5.15;;;29.20;99.90;;;;;;4991793;28;20459;-49
2023/07/09 11:03:02;;;;;;;11.77;4.45;;;29.20;99.90;;;;;;4990524;28;20038;-49
2023/07/09 11:05:27;;;;;;;14.02;5.32;;;29.20;99.90;;;;;;4992261;28;20375;-48
2023/07/09 11:08:02;;;;;;;17.38;7.57;;;29.20;99.90;;;;;;4991911;28;20028;-48
2023/07/09 11:10:40;;;;;;;16.70;8.35;;;29.20;99.90;;;;;;4980087;28;20038;-48
2023/07/09 11:13:19;;;;;;;13.35;6.88;;;29.20;99.90;;;;;;4990894;28;20029;-48
2023/07/09 11:15:48;;;;;;;13.50;6.10;;;29.20;99.90;;;;;;4990635;28;20494;-49
2023/07/09 11:18:30;;;;;;;11.07;6.57;;;29.20;99.90;;;;;;4994877;28;20028;-48
2023/07/09 11:21:08;;;;;;;14.88;5.30;;;29.20;99.90;;;;;;4995297;28;20517;-49
2023/07/09 11:23:50;;;;;;;14.27;5.28;;;29.20;99.90;;;;;;4987913;28;20034;-48
2023/07/09 11:26:31;;;;;;;11.80;4.75;;;29.30;99.90;;;;;;4993210;28;20474;-49
2023/07/09 11:29:06;;;;;;;15.48;6.03;;;29.30;99.90;;;;;;4995298;28;20500;-49
2023/07/09 11:31:38;;;;;;;14.90;6.55;;;29.30;99.90;;;;;;4970859;28;20045;-49
2023/07/09 11:34:07;;;;;;;17.60;6.60;;;29.30;99.90;;;;;;4995151;28;20474;-49
2023/07/09 11:36:34;;;;;;;14.35;5.40;;;29.40;99.90;;;;;;4995609;28;20387;-48
2023/07/09 11:39:00;;;;;;;;;;;29.40;99.90;;;;;;4981443;28;20023;-49
2023/07/09 11:41:28;;;;;;;16.77;6.15;;;29.40;99.90;;;;;;4995101;28;19913;-49
2023/07/09 11:44:18;;;;;;;15.27;6.03;;;29.50;99.90;;;;;;4995124;28;20513;-48
2023/07/09 11:47:08;;;;;;;23.98;8.07;;;29.50;99.90;;;;;;4995031;28;20026;-49
2023/07/09 11:49:48;;;;;;;15.98;5.10;;;29.50;99.90;;;;;;4994816;28;20031;-49
2023/07/09 11:52:18;;;;;;;8.73;4.00;;;29.50;99.90;;;;;;4994897;28;20057;-49
2023/07/09 11:54:44;;;;;;;11.73;4.70;;;29.60;99.90;;;;;;4994874;28;20083;-48
2023/07/09 11:57:16;;;;;;;16.52;5.20;;;29.60;99.90;;;;;;4994678;28;20414;-49
2023/07/09 11:59:42;;;;;;;14.63;5.13;;;29.70;99.90;;;;;;4995074;28;20383;-50
2023/07/09 12:02:18;;;;;;;13.40;4.97;;;29.60;99.90;;;;;;4993149;28;20042;-49
2023/07/09 12:04:49;;;;;;;15.82;4.53;;;29.70;99.90;;;;;;4994905;28;20023;-49
2023/07/09 12:07:16;;;;;;;11.15;5.28;;;29.70;99.90;;;;;;4994641;28;20026;-49
2023/07/09 12:09:51;;;;;;;12.90;6.15;;;29.70;99.90;;;;;;4994525;28;20030;-50
2023/07/09 12:12:23;;;;;;;11.63;5.22;;;29.70;99.90;;;;;;4994705;28;20033;-48
2023/07/09 12:14:49;;;;;;;14.23;6.10;;;29.70;99.90;;;;;;4977662;28;20022;-49
2023/07/09 12:17:15;;;;;;;8.32;5.03;;;29.80;99.90;;;;;;4986881;28;20383;-49
2023/07/09 12:19:41;;;;;;;12.73;5.80;;;29.80;99.90;;;;;;4994190;28;20489;-48
2023/07/09 12:22:16;;;;;;;16.02;6.45;;;29.80;99.90;;;;;;4994567;28;20113;-48
2023/07/09 12:24:44;;;;;;;16.75;8.50;;;29.80;99.90;;;;;;4994045;28;20026;-49
2023/07/09 12:27:23;;;;;;;13.98;6.25;;;29.80;99.90;;;;;;4993062;28;20022;-49
2023/07/09 12:29:52;;;;;;;13.80;5.50;;;29.90;99.90;;;;;;4994032;28;20030;-49
2023/07/09 12:32:18;;;;;;;13.55;7.88;;;29.90;99.90;;;;;;4994209;28;20023;-49
2023/07/09 12:34:52;;;;;;;17.00;8.60;;;29.90;99.90;;;;;;4994367;28;20097;-48
2023/07/09 12:37:20;;;;;;;18.88;6.32;;;30.00;99.90;;;;;;4994106;28;20026;-49
2023/07/09 12:39:49;;;;;;;17.75;7.25;;;30.00;99.90;;;;;;4992405;28;20379;-49
2023/07/09 12:42:37;;;;;;;17.05;5.45;;;30.00;99.90;;;;;;4992569;28;20105;-49
2023/07/09 12:45:04;;;;;;;15.27;6.80;;;30.10;99.90;;;;;;4994139;28;20114;-49
2023/07/09 12:47:30;;;;;;;19.33;9.27;;;30.10;99.90;;;;;;4993575;28;20109;-49
2023/07/09 12:50:17;;;;;;;14.95;5.35;;;30.10;99.90;;;;;;4993766;28;20118;-48